• Join FlightAware (Why Join?)
  • Login
  • US Flag 
11:16AM EST


 

Airport Tracker/Info


-or-


 

Live Flight TrackerFlight Track Log ✈ SWA1969 ✈ 29-Aug-2013 ✈ KEYW - KTPA

Flight Track Log - Related Links

Times and Time Zones

All times are in EDT time to prevent confusion due to time zone crossing. See the SWA1969 flight status page for this flight to view local times or setup timezone preferences in your user account.

Time Position Orientation Groundspeed Altitude Reporting Facility
EDT Latitude Longitude Course Direction KTS MPH feet Rate Location/Type
01:41PM 24.7564 -81.7458 North 314 361 11,300  Level Miami Center
01:42PM 24.8544 -81.7450 360° North 326 375 15,500 3,900 Climbing Miami Center
01:43PM 24.9525 -81.7467 359° North 345 397 19,200 3,240 Climbing Miami Center
01:44PM 25.0569 -81.7486 359° North 363 418 22,000 1,380 Climbing Miami Center
01:45PM 25.1241 -81.9409 11° North  Level FlightAware Approximate
01:45PM 25.1592 -81.7528 358° North 368 423 22,000  Level Miami Center
01:46PM 25.2133 -81.9211 11° North  Level FlightAware Approximate
01:46PM 25.2614 -81.7544 359° North 363 418 22,000  Level Miami Center
01:47PM 25.2997 -81.9104 North  Level FlightAware Approximate
01:47PM 25.3617 -81.7539 360° North 363 418 22,000  Level Miami Center
01:48PM 25.4658 -81.7581 358° North 363 418 22,000  Level Miami Center
01:49PM 25.5661 -81.7600 359° North 363 418 22,000  Level Miami Center
01:50PM 25.6664 -81.7594 360° North 363 418 22,000  Level Miami Center
01:51PM 25.7683 -81.7636 358° North 363 418 22,000  Level Miami Center
01:52PM 25.8686 -81.7631 360° North 363 418 22,000  Level Miami Center
01:53PM 25.9708 -81.7647 359° North 363 418 22,000  Level Miami Center
01:54PM 26.0731 -81.7667 359° North 363 418 22,000  Level Miami Center
01:55PM 26.1733 -81.7686 359° North 363 418 22,000  Level Miami Center
01:56PM 26.2881 -81.7711 359° North 363 418 22,000  Level Miami Center
01:57PM 26.3883 -81.7728 359° North 363 418 22,000 -300 Level Miami Center
01:58PM 26.4861 -81.7769 358° North 363 418 21,500 -780 Descending Miami Center
01:59PM 26.5861 -81.7858 355° North 363 418 20,500 -1,020 Descending Miami Center
02:00PM 26.6836 -81.8039 351° North 363 418 19,500 -1,020 Descending Miami Center
02:01PM 26.7833 -81.8197 352° North 363 418 18,500 -900 Descending Miami Center
02:02PM 26.8747 -81.8328 353° North 363 418 17,800 -900 Descending Miami Center
02:03PM 26.9703 -81.8486 352° North 355 409 16,800 -1,080 Descending Miami Center
02:04PM 27.0761 -81.8647 352° North 350 403 15,700 -1,080 Descending Miami Center
02:05PM 27.1717 -81.8806 352° North 350 403 14,700 -1,020 Descending Miami Center
02:06PM 27.2583 -81.9053 346° North 344 396 13,700 -1,020 Descending Miami Center
02:07PM 27.3164 -81.9781 312° West 312 359 12,700 -1,020 Descending Miami Center
02:08PM 27.3786 -82.0486 315° West 312 359 11,700 -900 Descending Miami Center
02:09PM 27.4267 -82.1044 314° West 312 359 11,000 -360 Descending Miami Center
02:10PM 27.4864 -82.1772 313° West 301 346 11,000 -660 Level Miami Center
02:11PM 27.5444 -82.2481 313° West 293 337 9,700 -1,260 Descending Miami Center
02:12PM 27.5900 -82.3108 309° West 284 327 8,500 -1,320 Descending Miami Center
02:14PM 27.6667 -82.3833 320° Northwest 267 307 6,700 -1,260 Descending Tampa TRACON
02:15PM 27.7167 -82.4333 318° Northwest 217 250 5,700 -1,740 Descending Tampa TRACON
02:16PM 27.7667 -82.4833 319° Northwest 233 268 3,300 -1,560 Descending Tampa TRACON
02:17PM 27.8167 -82.5333 319° Northwest 184 212 2,600 -600 Descending Tampa TRACON
02:18PM 27.8500 -82.5500 336° Northwest 150 173 2,200 -600 Descending Tampa TRACON
02:19PM 27.9000 -82.5500 360° North 135 155 1,400 -660 Descending Tampa TRACON
02:20PM 27.9333 -82.5500 360° North 118 136 800 -600 Descending Tampa TRACON
02:21PM 27.9500 -82.5500 360° North 124 143 200 -720 Descending Tampa TRACON
02:23PM 27.9755 -82.5332 North  Level Estimated
02:30PM 27.9755 -82.5332 190° South  Level Estimated